Time;durP1;ratioP1;P1;durP2;ratioP2;P2;SDS_P1;SDS_P2;PMS_P1;PMS_P2;Temp;Humidity;BMP_temperature;BMP_pressure;BME280_temperature;BME280_humidity;BME280_pressure;Samples;Min_cycle;Max_cycle;Signal;HPM_P1;HPM_P2
2022/04/30 00:00:29;;;;;;;;;;;;;;;;;;5075143;28;28262;-80
2022/04/30 00:02:54;;;;;;;;;;;;;;;;;;5075645;28;28490;-81
2022/04/30 00:05:19;;;;;;;;;;;;;;;;;;5075558;28;29654;-81
2022/04/30 00:07:44;;;;;;;;;;;;;;;;;;5075212;28;28391;-80
2022/04/30 00:10:09;;;;;;;;;;;;;;;;;;5075541;28;28410;-81
2022/04/30 00:12:34;;;;;;;;;;;;;;;;;;5075397;28;28468;-81
2022/04/30 00:15:00;;;;;;;;;;;;;;;;;;5074789;28;28465;-81
2022/04/30 00:17:25;;;;;;;;;;;;;;;;;;5075437;28;28405;-81
2022/04/30 00:19:50;;;;;;;;;;;;;;;;;;5075235;28;28488;-81
2022/04/30 00:22:15;;;;;;;;;;;;;;;;;;5075438;28;28348;-81
2022/04/30 00:24:40;;;;;;;;;;;;;;;;;;5075098;28;28340;-81
2022/04/30 00:27:05;;;;;;;;;;;;;;;;;;5075279;28;28356;-81
2022/04/30 00:29:30;;;;;;;;;;;;;;;;;;5075018;28;28387;-81
2022/04/30 00:31:55;;;;;;;;;;;;;;;;;;5075172;28;28372;-81
2022/04/30 00:34:21;;;;;;;;;;;;;;;;;;5075275;28;28445;-81
2022/04/30 00:36:46;;;;;;;;;;;;;;;;;;5074897;28;28324;-81
2022/04/30 00:39:11;;;;;;;;;;;;;;;;;;5075260;28;28332;-81
2022/04/30 00:41:36;;;;;;;;;;;;;;;;;;5075001;28;28674;-81
2022/04/30 00:44:01;;;;;;;;;;;;;;;;;;5074704;28;29459;-81
2022/04/30 00:46:27;;;;;;;;;;;;;;;;;;5074784;28;28518;-81
2022/04/30 00:48:53;;;;;;;;;;;;;;;;;;5074835;28;28415;-81
2022/04/30 00:51:19;;;;;;;;;;;;;;;;;;5074895;28;28609;-81
2022/04/30 00:53:44;;;;;;;;;;;;;;;;;;5074718;28;28277;-81
2022/04/30 00:56:09;;;;;;;;;;;;;;;;;;5074751;28;28367;-81
2022/04/30 00:58:34;;;;;;;;;;;;;;;;;;5075094;28;28463;-81
2022/04/30 01:00:59;;;;;;;;;;;;;;;;;;5074726;28;28439;-81
2022/04/30 01:03:24;;;;;;;;;;;;;;;;;;5078357;28;28336;-81
2022/04/30 01:05:51;;;;;;;;;;;;;;;;;;5078326;28;28260;-80
2022/04/30 01:08:16;;;;;;;;;;;;;;;;;;5078343;28;28415;-81
2022/04/30 01:10:41;;;;;;;;;;;;;;;;;;5078321;28;28467;-80
2022/04/30 01:13:06;;;;;;;;;;;;;;;;;;5078040;28;28529;-81
2022/04/30 01:15:31;;;;;;;;;;;;;;;;;;5077765;28;28397;-80
2022/04/30 01:17:57;;;;;;;;;;;;;;;;;;5078171;28;28450;-80
2022/04/30 01:20:22;;;;;;;;;;;;;;;;;;5078165;28;28406;-80
2022/04/30 01:22:47;;;;;;;;;;;;;;;;;;5078005;28;29564;-81
2022/04/30 01:25:12;;;;;;;;;;;;;;;;;;5077855;28;28405;-81
2022/04/30 01:27:37;;;;;;;;;;;;;;;;;;5077987;28;28324;-81
2022/04/30 01:30:02;;;;;;;;;;;;;;;;;;5077912;28;28422;-81
2022/04/30 01:37:55;;;;;;;;;;;;;;;;;;5077877;28;28335;-80
2022/04/30 01:40:20;;;;;;;;;;;;;;;;;;5077899;28;28423;-81
2022/04/30 01:42:45;;;;;;;;;;;;;;;;;;5077886;28;28625;-81
2022/04/30 01:45:10;;;;;;;;;;;;;;;;;;5077607;28;28293;-80
2022/04/30 01:47:35;;;;;;;;;;;;;;;;;;5077350;28;28308;-81
2022/04/30 01:50:00;;;;;;;;;;;;;;;;;;5077980;28;28597;-80
2022/04/30 01:52:26;;;;;;;;;;;;;;;;;;5077263;28;28518;-80
2022/04/30 01:54:51;;;;;;;;;;;;;;;;;;5077414;28;28508;-81
2022/04/30 01:57:23;;;;;;;;;;;;;;;;;;5059464;28;28432;-80
2022/04/30 01:59:49;;;;;;;;;;;;;;;;;;5077301;28;28289;-81
2022/04/30 02:02:14;;;;;;;;;;;;;;;;;;5077038;28;28716;-80
2022/04/30 02:04:40;;;;;;;;;;;;;;;;;;5077216;28;28308;-81
2022/04/30 02:07:05;;;;;;;;;;;;;;;;;;5077170;28;28368;-80
2022/04/30 02:09:31;;;;;;;;;;;;;;;;;;5077608;28;28365;-80
2022/04/30 02:11:57;;;;;;;;;;;;;;;;;;5077057;28;28478;-80
2022/04/30 02:14:22;;;;;;;;;;;;;;;;;;5076337;28;28395;-80
2022/04/30 02:16:48;;;;;;;;;;;;;;;;;;5076662;28;29025;-80
2022/04/30 02:19:13;;;;;;;;;;;;;;;;;;5076251;28;28352;-80
2022/04/30 02:21:38;;;;;;;;;;;;;;;;;;5077068;28;28572;-80
2022/04/30 02:24:03;;;;;;;;;;;;;;;;;;5076795;28;28598;-80
2022/04/30 02:26:28;;;;;;;;;;;;;;;;;;5077295;28;28949;-80
2022/04/30 02:28:55;;;;;;;;;;;;;;;;;;5077008;28;28394;-80
2022/04/30 02:31:23;;;;;;;;;;;;;;;;;;5076600;28;28381;-80
2022/04/30 02:33:48;;;;;;;;;;;;;;;;;;5077203;28;28536;-82
2022/04/30 02:36:14;;;;;;;;;;;;;;;;;;5077050;28;28233;-82
2022/04/30 02:38:41;;;;;;;;;;;;;;;;;;5076999;28;28444;-82
2022/04/30 02:41:06;;;;;;;;;;;;;;;;;;5076639;28;29481;-82
2022/04/30 02:43:32;;;;;;;;;;;;;;;;;;5076733;28;27749;-82
2022/04/30 02:45:57;;;;;;;;;;;;;;;;;;5076722;28;28447;-80
2022/04/30 02:48:22;;;;;;;;;;;;;;;;;;5076885;28;28450;-82
2022/04/30 02:50:48;;;;;;;;;;;;;;;;;;5076626;28;29397;-82
2022/04/30 02:53:13;;;;;;;;;;;;;;;;;;5076408;28;28491;-82
2022/04/30 02:55:38;;;;;;;;;;;;;;;;;;5076476;28;28352;-82
2022/04/30 03:00:47;;;;;;;;;;;;;;;;;;5076107;28;28394;-82
2022/04/30 03:03:13;;;;;;;;;;;;;;;;;;5076432;28;28363;-82
2022/04/30 03:05:40;;;;;;;;;;;;;;;;;;5076291;28;28787;-82
2022/04/30 03:08:06;;;;;;;;;;;;;;;;;;5076277;28;28422;-82
2022/04/30 03:10:31;;;;;;;;;;;;;;;;;;5076388;28;29040;-82
2022/04/30 03:12:56;;;;;;;;;;;;;;;;;;5076095;28;28462;-82
2022/04/30 03:15:22;;;;;;;;;;;;;;;;;;5075893;28;28285;-82
2022/04/30 03:23:15;;;;;;;;;;;;;;;;;;5076310;28;28412;-82
2022/04/30 03:25:40;;;;;;;;;;;;;;;;;;5076011;28;28387;-80
2022/04/30 03:28:05;;;;;;;;;;;;;;;;;;5075906;28;28481;-82
2022/04/30 03:30:31;;;;;;;;;;;;;;;;;;5076059;28;28471;-80
2022/04/30 03:32:56;;;;;;;;;;;;;;;;;;5075891;28;28284;-80
2022/04/30 03:35:21;;;;;;;;;;;;;;;;;;5075867;28;28538;-80
2022/04/30 03:37:46;;;;;;;;;;;;;;;;;;5076021;28;28352;-80
2022/04/30 03:40:13;;;;;;;;;;;;;;;;;;5075658;28;29179;-80
2022/04/30 03:42:38;;;;;;;;;;;;;;;;;;5057524;28;28346;-80
2022/04/30 03:45:04;;;;;;;;;;;;;;;;;;5069158;28;28529;-82
2022/04/30 03:47:29;;;;;;;;;;;;;;;;;;5074035;28;28585;-83
2022/04/30 03:49:54;;;;;;;;;;;;;;;;;;5075047;28;28515;-82
2022/04/30 03:52:19;;;;;;;;;;;;;;;;;;5074645;28;28471;-82
2022/04/30 03:54:44;;;;;;;;;;;;;;;;;;5075220;28;28407;-81
2022/04/30 03:57:09;;;;;;;;;;;;;;;;;;5075601;28;28281;-82
2022/04/30 03:59:34;;;;;;;;;;;;;;;;;;5075348;28;28600;-83
2022/04/30 04:01:59;;;;;;;;;;;;;;;;;;5075288;28;28253;-82
2022/04/30 04:04:25;;;;;;;;;;;;;;;;;;5075064;28;28284;-83
2022/04/30 04:06:50;;;;;;;;;;;;;;;;;;5075469;28;28383;-83
2022/04/30 04:09:15;;;;;;;;;;;;;;;;;;5075110;28;28409;-82
2022/04/30 04:11:40;;;;;;;;;;;;;;;;;;5075426;28;28327;-82
2022/04/30 04:19:32;;;;;;;;;;;;;;;;;;5075352;28;28265;-86
2022/04/30 04:21:58;;;;;;;;;;;;;;;;;;5075022;28;28289;-86
2022/04/30 04:27:07;;;;;;;;;;;;;;;;;;5075344;28;28376;-87
2022/04/30 04:29:32;;;;;;;;;;;;;;;;;;5074668;28;29196;-87
2022/04/30 04:31:57;;;;;;;;;;;;;;;;;;5075116;28;28249;-87
2022/04/30 04:34:22;;;;;;;;;;;;;;;;;;5075089;28;28234;-87
2022/04/30 04:36:47;;;;;;;;;;;;;;;;;;5076580;28;28470;-86
2022/04/30 04:39:13;;;;;;;;;;;;;;;;;;5078268;28;28329;-86
2022/04/30 04:41:38;;;;;;;;;;;;;;;;;;5078243;28;28252;-86
2022/04/30 04:44:03;;;;;;;;;;;;;;;;;;5078424;28;28352;-87
2022/04/30 04:46:28;;;;;;;;;;;;;;;;;;5078420;28;28266;-86
2022/04/30 04:48:53;;;;;;;;;;;;;;;;;;5078398;28;28443;-86
2022/04/30 04:51:20;;;;;;;;;;;;;;;;;;5078625;28;28340;-86
2022/04/30 04:53:45;;;;;;;;;;;;;;;;;;5078098;28;28470;-87
2022/04/30 04:56:10;;;;;;;;;;;;;;;;;;5078262;28;28565;-87
2022/04/30 04:58:35;;;;;;;;;;;;;;;;;;5078122;28;28695;-87
2022/04/30 05:01:00;;;;;;;;;;;;;;;;;;5077946;28;28442;-87
2022/04/30 05:03:25;;;;;;;;;;;;;;;;;;5078170;28;28312;-87
2022/04/30 05:05:51;;;;;;;;;;;;;;;;;;5078359;28;28431;-87
2022/04/30 05:08:16;;;;;;;;;;;;;;;;;;5078063;28;29391;-86
2022/04/30 05:10:41;;;;;;;;;;;;;;;;;;5078363;28;28519;-87
2022/04/30 05:13:06;;;;;;;;;;;;;;;;;;5078161;28;28327;-86
2022/04/30 05:15:31;;;;;;;;;;;;;;;;;;5078194;28;28442;-86
2022/04/30 05:17:56;;;;;;;;;;;;;;;;;;5077335;28;29082;-86
2022/04/30 05:20:21;;;;;;;;;;;;;;;;;;5078201;28;28411;-86
2022/04/30 05:22:46;;;;;;;;;;;;;;;;;;5078078;28;28402;-86
2022/04/30 05:25:13;;;;;;;;;;;;;;;;;;5077905;28;28330;-87
2022/04/30 05:27:38;;;;;;;;;;;;;;;;;;5077300;28;28926;-87
2022/04/30 05:30:03;;;;;;;;;;;;;;;;;;5077458;28;28332;-86
2022/04/30 05:32:28;;;;;;;;;;;;;;;;;;5077009;28;28921;-86
2022/04/30 05:34:54;;;;;;;;;;;;;;;;;;5077581;28;28202;-87
2022/04/30 05:37:19;;;;;;;;;;;;;;;;;;5063815;28;28466;-87
2022/04/30 05:39:44;;;;;;;;;;;;;;;;;;5066547;28;28439;-87
2022/04/30 05:42:09;;;;;;;;;;;;;;;;;;5057621;28;28320;-88
2022/04/30 05:44:34;;;;;;;;;;;;;;;;;;5057759;28;28241;-87
2022/04/30 05:46:59;;;;;;;;;;;;;;;;;;5057200;28;28482;-87
2022/04/30 05:49:24;;;;;;;;;;;;;;;;;;5070749;28;28766;-87
2022/04/30 05:51:49;;;;;;;;;;;;;;;;;;5077528;28;28332;-87
2022/04/30 05:54:14;;;;;;;;;;;;;;;;;;5077394;28;28494;-87
2022/04/30 05:56:40;;;;;;;;;;;;;;;;;;5077319;28;29508;-86
2022/04/30 05:59:05;;;;;;;;;;;;;;;;;;5077144;28;28080;-87
2022/04/30 06:01:30;;;;;;;;;;;;;;;;;;5073713;28;28466;-87
2022/04/30 06:03:55;;;;;;;;;;;;;;;;;;5077041;28;28489;-87
2022/04/30 06:06:20;;;;;;;;;;;;;;;;;;5076983;28;29087;-87
2022/04/30 06:08:46;;;;;;;;;;;;;;;;;;5077304;28;28262;-86
2022/04/30 06:11:11;;;;;;;;;;;;;;;;;;5077024;28;28331;-87
2022/04/30 06:13:36;;;;;;;;;;;;;;;;;;5077435;28;28245;-87
2022/04/30 06:16:01;;;;;;;;;;;;;;;;;;5076352;28;28526;-86
2022/04/30 06:18:26;;;;;;;;;;;;;;;;;;5076580;28;28359;-85
2022/04/30 06:20:52;;;;;;;;;;;;;;;;;;5077035;28;28446;-86
2022/04/30 06:23:17;;;;;;;;;;;;;;;;;;5077173;28;28416;-86
2022/04/30 06:25:42;;;;;;;;;;;;;;;;;;5076860;28;28404;-87
2022/04/30 06:28:08;;;;;;;;;;;;;;;;;;5076800;28;28442;-83
2022/04/30 06:30:35;;;;;;;;;;;;;;;;;;5076718;28;28245;-82
2022/04/30 06:33:00;;;;;;;;;;;;;;;;;;5076293;28;28251;-82
2022/04/30 06:35:25;;;;;;;;;;;;;;;;;;5076682;28;28481;-83
2022/04/30 06:37:50;;;;;;;;;;;;;;;;;;5076546;28;28345;-82
2022/04/30 06:40:15;;;;;;;;;;;;;;;;;;5077030;28;28288;-82
2022/04/30 06:42:40;;;;;;;;;;;;;;;;;;5076889;28;28384;-82
2022/04/30 06:45:05;;;;;;;;;;;;;;;;;;5058177;28;30261;-82
2022/04/30 06:47:30;;;;;;;;;;;;;;;;;;5076262;28;28321;-82
2022/04/30 06:49:55;;;;;;;;;;;;;;;;;;5076896;28;28529;-82
2022/04/30 06:52:20;;;;;;;;;;;;;;;;;;5076690;28;28425;-82
2022/04/30 06:57:30;;;;;;;;;;;;;;;;;;5075900;28;28382;-85
2022/04/30 06:59:56;;;;;;;;;;;;;;;;;;5064531;28;28297;-84
2022/04/30 07:02:30;;;;;;;;;;;;;;;;;;5074817;28;28342;-83
2022/04/30 07:04:55;;;;;;;;;;;;;;;;;;5074618;28;29687;-82
2022/04/30 07:07:20;;;;;;;;;;;;;;;;;;5075917;28;28013;-83
2022/04/30 07:09:46;;;;;;;;;;;;;;;;;;5076060;28;27853;-84
2022/04/30 07:12:13;;;;;;;;;;;;;;;;;;5058454;28;28577;-83
2022/04/30 07:14:41;;;;;;;;;;;;;;;;;;5076229;28;29520;-84
2022/04/30 07:17:06;;;;;;;;;;;;;;;;;;5075637;28;28443;-83
2022/04/30 07:19:31;;;;;;;;;;;;;;;;;;5076243;28;28818;-82
2022/04/30 07:21:56;;;;;;;;;;;;;;;;;;5076177;28;28976;-83
2022/04/30 07:24:21;;;;;;;;;;;;;;;;;;5076037;28;29209;-85
2022/04/30 07:26:46;;;;;;;;;;;;;;;;;;5075770;28;28460;-85
2022/04/30 07:29:11;;;;;;;;;;;;;;;;;;5075642;28;28284;-85
2022/04/30 07:31:37;;;;;;;;;;;;;;;;;;5075500;28;28574;-91
2022/04/30 07:34:02;;;;;;;;;;;;;;;;;;5057105;28;29808;-84
2022/04/30 07:36:28;;;;;;;;;;;;;;;;;;5043860;28;28345;-91
2022/04/30 07:38:54;;;;;;;;;;;;;;;;;;5057709;28;28447;-87
2022/04/30 07:41:19;;;;;;;;;;;;;;;;;;5075992;28;28256;-83
2022/04/30 07:43:44;;;;;;;;;;;;;;;;;;5075352;28;28453;-85
2022/04/30 07:46:09;;;;;;;;;;;;;;;;;;5075019;28;31333;-84
2022/04/30 07:48:34;;;;;;;;;;;;;;;;;;5075803;28;28719;-84
2022/04/30 07:51:00;;;;;;;;;;;;;;;;;;5074966;28;28251;-86
2022/04/30 07:53:25;;;;;;;;;;;;;;;;;;5075531;28;30095;-87
2022/04/30 07:55:51;;;;;;;;;;;;;;;;;;5075378;28;28510;-83
2022/04/30 07:58:16;;;;;;;;;;;;;;;;;;5075508;28;28461;-84
2022/04/30 08:00:41;;;;;;;;;;;;;;;;;;5075969;28;28469;-85
2022/04/30 08:03:06;;;;;;;;;;;;;;;;;;5075745;28;28485;-89
2022/04/30 08:05:31;;;;;;;;;;;;;;;;;;5075050;28;28446;-86
2022/04/30 08:07:56;;;;;;;;;;;;;;;;;;5074730;28;28372;-86
2022/04/30 08:10:22;;;;;;;;;;;;;;;;;;5075380;28;28829;-85
2022/04/30 08:12:47;;;;;;;;;;;;;;;;;;5074756;28;28708;-86
2022/04/30 08:15:12;;;;;;;;;;;;;;;;;;5074755;28;28959;-87
2022/04/30 08:17:38;;;;;;;;;;;;;;;;;;5074903;28;28394;-86
2022/04/30 08:20:03;;;;;;;;;;;;;;;;;;5075368;28;28411;-86
2022/04/30 08:22:28;;;;;;;;;;;;;;;;;;5074996;28;28538;-87
2022/04/30 08:24:54;;;;;;;;;;;;;;;;;;5075062;28;28557;-86
2022/04/30 08:27:19;;;;;;;;;;;;;;;;;;5073750;28;28294;-86
2022/04/30 08:29:44;;;;;;;;;;;;;;;;;;5074145;28;28402;-87
2022/04/30 08:32:10;;;;;;;;;;;;;;;;;;5074250;28;29256;-85
2022/04/30 08:34:35;;;;;;;;;;;;;;;;;;5074361;28;27822;-86
2022/04/30 08:37:00;;;;;;;;;;;;;;;;;;5078885;28;27843;-88
2022/04/30 08:39:25;;;;;;;;;;;;;;;;;;5074003;28;28321;-88
2022/04/30 08:41:50;;;;;;;;;;;;;;;;;;5074122;28;28567;-88
2022/04/30 08:44:15;;;;;;;;;;;;;;;;;;5074804;28;28556;-92
2022/04/30 08:46:40;;;;;;;;;;;;;;;;;;5076004;28;28564;-86
2022/04/30 08:49:05;;;;;;;;;;;;;;;;;;5075099;28;28581;-86
2022/04/30 08:51:31;;;;;;;;;;;;;;;;;;5074740;28;29858;-87
2022/04/30 08:53:56;;;;;;;;;;;;;;;;;;5073826;28;28306;-88
2022/04/30 08:56:21;;;;;;;;;;;;;;;;;;5073670;28;28322;-89
2022/04/30 08:58:46;;;;;;;;;;;;;;;;;;5075578;28;28452;-88
2022/04/30 09:01:11;;;;;;;;;;;;;;;;;;5074300;28;29661;-90
2022/04/30 09:03:36;;;;;;;;;;;;;;;;;;5073445;28;28256;-89
2022/04/30 09:06:01;;;;;;;;;;;;;;;;;;5074843;28;28007;-89
2022/04/30 09:08:27;;;;;;;;;;;;;;;;;;5075274;28;28383;-86
2022/04/30 09:10:52;;;;;;;;;;;;;;;;;;5074553;28;28344;-86
2022/04/30 09:13:18;;;;;;;;;;;;;;;;;;5071941;28;28421;-85
2022/04/30 09:15:46;;;;;;;;;;;;;;;;;;5074506;28;28427;-87
2022/04/30 09:18:11;;;;;;;;;;;;;;;;;;5074639;28;28419;-87
2022/04/30 09:20:37;;;;;;;;;;;;;;;;;;5074169;28;28528;-87
2022/04/30 09:23:02;;;;;;;;;;;;;;;;;;5076577;28;28446;-86
2022/04/30 09:25:28;;;;;;;;;;;;;;;;;;5078031;28;28388;-82
2022/04/30 09:27:53;;;;;;;;;;;;;;;;;;5077684;28;28564;-85
2022/04/30 09:30:18;;;;;;;;;;;;;;;;;;5077612;28;28506;-85
2022/04/30 09:32:43;;;;;;;;;;;;;;;;;;5077786;28;28505;-81
2022/04/30 09:37:53;;;;;;;;;;;;;;;;;;5077693;28;28530;-83
2022/04/30 09:40:19;;;;;;;;;;;;;;;;;;5077042;28;28629;-84
2022/04/30 09:42:44;;;;;;;;;;;;;;;;;;5077652;28;28713;-82
2022/04/30 09:45:09;;;;;;;;;;;;;;;;;;5077163;28;28367;-80
2022/04/30 09:47:34;;;;;;;;;;;;;;;;;;5077901;28;28422;-83
2022/04/30 09:55:27;;;;;;;;;;;;;;;;;;5077355;28;28522;-83
2022/04/30 09:57:52;;;;;;;;;;;;;;;;;;5077479;28;28339;-82
2022/04/30 10:00:17;;;;;;;;;;;;;;;;;;5083283;28;28329;-82
2022/04/30 10:02:44;;;;;;;;;;;;;;;;;;5097675;28;27866;-86
2022/04/30 10:05:11;;;;;;;;;;;;;;;;;;5097148;28;28473;-88
2022/04/30 10:07:36;;;;;;;;;;;;;;;;;;5098176;28;28279;-86
2022/04/30 10:10:01;;;;;;;;;;;;;;;;;;5097711;28;28638;-87
2022/04/30 10:12:31;;;;;;;;;;;;;;;;;;5075767;28;28295;-81
2022/04/30 10:14:56;;;;;;;;;;;;;;;;;;5083063;28;28474;-86
2022/04/30 10:17:23;;;;;;;;;;;;;;;;;;5084180;28;28461;-85
2022/04/30 10:19:48;;;;;;;;;;;;;;;;;;5082139;28;28479;-85
2022/04/30 10:22:13;;;;;;;;;;;;;;;;;;5077393;28;28417;-84
2022/04/30 10:24:39;;;;;;;;;;;;;;;;;;5076889;28;28322;-80
2022/04/30 10:27:04;;;;;;;;;;;;;;;;;;5076906;28;28344;-85
2022/04/30 10:29:29;;;;;;;;;;;;;;;;;;5076758;28;28371;-90
2022/04/30 10:31:54;;;;;;;;;;;;;;;;;;5059200;28;28529;-81
2022/04/30 10:34:19;;;;;;;;;;;;;;;;;;5076268;28;28403;-83
2022/04/30 10:36:44;;;;;;;;;;;;;;;;;;5076950;28;28592;-86
2022/04/30 10:39:09;;;;;;;;;;;;;;;;;;5076408;28;29147;-83
2022/04/30 10:41:34;;;;;;;;;;;;;;;;;;5076825;28;28407;-85
2022/04/30 10:44:00;;;;;;;;;;;;;;;;;;5076498;28;28428;-86
2022/04/30 10:46:26;;;;;;;;;;;;;;;;;;5076431;28;28395;-83
2022/04/30 10:48:51;;;;;;;;;;;;;;;;;;5076651;28;29538;-87
2022/04/30 10:51:16;;;;;;;;;;;;;;;;;;5076168;28;28397;-85
2022/04/30 10:53:41;;;;;;;;;;;;;;;;;;5076858;28;28237;-84
2022/04/30 10:56:06;;;;;;;;;;;;;;;;;;5076696;28;28363;-82
2022/04/30 10:58:31;;;;;;;;;;;;;;;;;;5076474;28;28616;-82
2022/04/30 11:00:57;;;;;;;;;;;;;;;;;;5076405;28;28586;-81
2022/04/30 11:03:22;;;;;;;;;;;;;;;;;;5075570;28;28247;-81
2022/04/30 11:05:47;;;;;;;;;;;;;;;;;;5076246;28;28499;-81
2022/04/30 11:08:12;;;;;;;;;;;;;;;;;;5076182;28;29149;-81
2022/04/30 11:10:37;;;;;;;;;;;;;;;;;;5076292;28;28411;-86
2022/04/30 11:13:02;;;;;;;;;;;;;;;;;;5076360;28;28237;-83
2022/04/30 11:15:27;;;;;;;;;;;;;;;;;;5076261;28;28504;-82
2022/04/30 11:17:52;;;;;;;;;;;;;;;;;;5076011;28;28692;-81
2022/04/30 11:20:17;;;;;;;;;;;;;;;;;;5076085;28;28336;-81
2022/04/30 11:22:42;;;;;;;;;;;;;;;;;;5076046;28;28372;-81
2022/04/30 11:25:08;;;;;;;;;;;;;;;;;;5076319;28;28353;-81
2022/04/30 11:27:33;;;;;;;;;;;;;;;;;;5075569;28;28406;-81
2022/04/30 11:29:58;;;;;;;;;;;;;;;;;;5075988;28;28249;-81
2022/04/30 11:32:23;;;;;;;;;;;;;;;;;;5075684;28;28241;-84
2022/04/30 11:34:48;;;;;;;;;;;;;;;;;;5082216;28;28292;-82
2022/04/30 11:37:13;;;;;;;;;;;;;;;;;;5086742;28;28407;-83
2022/04/30 11:39:38;;;;;;;;;;;;;;;;;;5074996;28;28860;-92
2022/04/30 11:42:04;;;;;;;;;;;;;;;;;;5048778;28;28462;-90
2022/04/30 11:44:29;;;;;;;;;;;;;;;;;;5079738;28;28332;-85
2022/04/30 11:46:54;;;;;;;;;;;;;;;;;;5086342;28;28332;-84
2022/04/30 11:49:19;;;;;;;;;;;;;;;;;;5083280;28;28452;-90
2022/04/30 11:51:44;;;;;;;;;;;;;;;;;;5089665;28;28962;-91
2022/04/30 11:54:09;;;;;;;;;;;;;;;;;;5085077;28;28527;-92
2022/04/30 11:56:34;;;;;;;;;;;;;;;;;;5094205;28;29560;-89
2022/04/30 11:59:00;;;;;;;;;;;;;;;;;;5088844;28;28310;-90
2022/04/30 12:01:25;;;;;;;;;;;;;;;;;;5081864;28;28331;-91
2022/04/30 12:03:50;;;;;;;;;;;;;;;;;;5061982;28;27900;-91
2022/04/30 12:06:15;;;;;;;;;;;;;;;;;;5077279;28;28437;-93
2022/04/30 12:08:40;;;;;;;;;;;;;;;;;;5100631;28;28413;-96
2022/04/30 12:11:05;;;;;;;;;;;;;;;;;;5107681;28;28369;-93
2022/04/30 12:13:31;;;;;;;;;;;;;;;;;;5100575;28;27845;-95
2022/04/30 12:15:56;;;;;;;;;;;;;;;;;;5099648;28;28384;-91
2022/04/30 12:26:33;;;;;;;;;;;;;;;;;;5057138;28;28395;-92
2022/04/30 12:28:58;;;;;;;;;;;;;;;;;;5055765;28;29269;-92
2022/04/30 12:31:23;;;;;;;;;;;;;;;;;;5055109;28;28304;-87
2022/04/30 12:33:48;;;;;;;;;;;;;;;;;;5056402;28;27840;-89
2022/04/30 12:36:13;;;;;;;;;;;;;;;;;;5055665;28;28428;-89
2022/04/30 12:38:38;;;;;;;;;;;;;;;;;;5056783;28;28281;-87
2022/04/30 12:41:06;;;;;;;;;;;;;;;;;;5073511;28;28414;-87
2022/04/30 12:43:33;;;;;;;;;;;;;;;;;;5089066;28;28351;-95
2022/04/30 12:45:58;;;;;;;;;;;;;;;;;;5099859;28;28559;-94
2022/04/30 12:48:23;;;;;;;;;;;;;;;;;;5101923;28;28481;-95
2022/04/30 12:50:48;;;;;;;;;;;;;;;;;;5098054;28;28532;-92
2022/04/30 12:53:13;;;;;;;;;;;;;;;;;;5097046;28;28371;-95
2022/04/30 12:55:38;;;;;;;;;;;;;;;;;;5098041;28;28017;-87
2022/04/30 12:58:03;;;;;;;;;;;;;;;;;;5098046;28;28362;-91
2022/04/30 13:00:29;;;;;;;;;;;;;;;;;;5100971;28;28420;-93
2022/04/30 13:02:54;;;;;;;;;;;;;;;;;;5103178;28;28330;-95
2022/04/30 13:05:19;;;;;;;;;;;;;;;;;;5084674;28;30170;-95
2022/04/30 13:07:44;;;;;;;;;;;;;;;;;;5104640;28;28324;-94
2022/04/30 13:15:41;;;;;;;;;;;;;;;;;;5073946;28;28513;-92
2022/04/30 13:18:07;;;;;;;;;;;;;;;;;;5073319;28;28891;-89
2022/04/30 13:20:33;;;;;;;;;;;;;;;;;;5084282;28;27803;-93
2022/04/30 13:22:58;;;;;;;;;;;;;;;;;;5100341;28;28268;-88
2022/04/30 13:25:23;;;;;;;;;;;;;;;;;;5099322;28;28512;-91
2022/04/30 13:27:48;;;;;;;;;;;;;;;;;;5098915;28;28311;-87
2022/04/30 13:30:18;;;;;;;;;;;;;;;;;;5100911;28;28342;-96
2022/04/30 13:32:43;;;;;;;;;;;;;;;;;;5101568;28;28504;-93
2022/04/30 13:35:08;;;;;;;;;;;;;;;;;;5090634;28;28927;-89
2022/04/30 13:37:33;;;;;;;;;;;;;;;;;;5064937;28;28765;-83
2022/04/30 13:39:58;;;;;;;;;;;;;;;;;;5078347;28;28531;-87
2022/04/30 13:42:23;;;;;;;;;;;;;;;;;;5078360;28;28363;-84
2022/04/30 13:44:48;;;;;;;;;;;;;;;;;;5077963;28;28655;-88
2022/04/30 13:47:14;;;;;;;;;;;;;;;;;;5078386;28;28343;-87
2022/04/30 13:49:39;;;;;;;;;;;;;;;;;;5077884;28;28430;-85
2022/04/30 13:52:04;;;;;;;;;;;;;;;;;;5077612;28;28487;-86
2022/04/30 13:54:29;;;;;;;;;;;;;;;;;;5077282;28;29629;-87
2022/04/30 13:56:54;;;;;;;;;;;;;;;;;;5077290;28;28422;-86
2022/04/30 13:59:24;;;;;;;;;;;;;;;;;;5077671;28;28532;-87
2022/04/30 14:01:49;;;;;;;;;;;;;;;;;;5077610;28;28523;-86
2022/04/30 14:04:14;;;;;;;;;;;;;;;;;;5077289;28;28507;-86
2022/04/30 14:06:39;;;;;;;;;;;;;;;;;;5077406;28;28801;-85
2022/04/30 14:09:05;;;;;;;;;;;;;;;;;;5075593;28;28483;-85
2022/04/30 14:11:30;;;;;;;;;;;;;;;;;;5077342;28;28336;-85
2022/04/30 14:16:39;;;;;;;;;;;;;;;;;;5076970;28;28234;-83
2022/04/30 14:19:04;;;;;;;;;;;;;;;;;;5076893;28;28403;-83
2022/04/30 14:21:29;;;;;;;;;;;;;;;;;;5077377;28;28402;-90
2022/04/30 14:23:54;;;;;;;;;;;;;;;;;;5076742;28;28514;-88
2022/04/30 14:26:19;;;;;;;;;;;;;;;;;;5076488;28;28571;-92
2022/04/30 14:28:44;;;;;;;;;;;;;;;;;;5075563;28;28373;-88
2022/04/30 14:31:09;;;;;;;;;;;;;;;;;;5078047;28;28561;-93
2022/04/30 14:33:35;;;;;;;;;;;;;;;;;;5076377;28;28715;-83
2022/04/30 14:36:00;;;;;;;;;;;;;;;;;;5080844;28;28630;-90
2022/04/30 14:38:26;;;;;;;;;;;;;;;;;;5077536;28;28495;-95
2022/04/30 14:40:51;;;;;;;;;;;;;;;;;;5080200;28;28324;-85
2022/04/30 14:43:16;;;;;;;;;;;;;;;;;;5076560;28;28426;-88
2022/04/30 14:45:41;;;;;;;;;;;;;;;;;;5080933;28;28491;-91
2022/04/30 14:48:06;;;;;;;;;;;;;;;;;;5074673;28;28431;-92
2022/04/30 14:50:31;;;;;;;;;;;;;;;;;;5077866;28;27779;-92
2022/04/30 14:52:56;;;;;;;;;;;;;;;;;;5089432;28;28420;-96
2022/04/30 14:55:22;;;;;;;;;;;;;;;;;;5089481;28;27794;-96
2022/04/30 14:57:47;;;;;;;;;;;;;;;;;;5082866;28;28657;-92
2022/04/30 15:00:12;;;;;;;;;;;;;;;;;;5083518;28;27796;-95
2022/04/30 15:02:37;;;;;;;;;;;;;;;;;;5078429;28;28612;-92
2022/04/30 15:05:02;;;;;;;;;;;;;;;;;;5076426;28;28448;-90
2022/04/30 15:07:27;;;;;;;;;;;;;;;;;;5083319;28;27752;-90
2022/04/30 15:09:53;;;;;;;;;;;;;;;;;;5079778;28;27897;-93
2022/04/30 15:12:19;;;;;;;;;;;;;;;;;;5076644;28;28364;-90
2022/04/30 15:14:45;;;;;;;;;;;;;;;;;;5078712;28;28379;-91
2022/04/30 15:17:11;;;;;;;;;;;;;;;;;;5072935;28;27839;-90
2022/04/30 15:19:36;;;;;;;;;;;;;;;;;;5075446;28;28508;-87
2022/04/30 15:22:01;;;;;;;;;;;;;;;;;;5075697;28;29390;-81
2022/04/30 15:24:26;;;;;;;;;;;;;;;;;;5071877;28;28295;-82
2022/04/30 15:26:52;;;;;;;;;;;;;;;;;;5075856;28;28287;-81
2022/04/30 15:29:17;;;;;;;;;;;;;;;;;;5075967;28;28453;-79
2022/04/30 15:31:43;;;;;;;;;;;;;;;;;;5063532;28;28539;-81
2022/04/30 15:34:09;;;;;;;;;;;;;;;;;;5083694;28;28514;-81
2022/04/30 15:36:34;;;;;;;;;;;;;;;;;;5096518;28;28284;-81
2022/04/30 15:38:59;;;;;;;;;;;;;;;;;;5075534;28;28453;-80
2022/04/30 15:41:25;;;;;;;;;;;;;;;;;;5072190;28;29335;-81
2022/04/30 15:43:50;;;;;;;;;;;;;;;;;;5073739;28;28552;-85
2022/04/30 15:46:16;;;;;;;;;;;;;;;;;;5076102;28;28391;-84
2022/04/30 15:51:32;;;;;;;;;;;;;;;;;;5075976;28;28748;-83
2022/04/30 15:53:57;;;;;;;;;;;;;;;;;;5075638;28;28304;-84
2022/04/30 15:56:22;;;;;;;;;;;;;;;;;;5076107;28;28454;-84
2022/04/30 15:58:49;;;;;;;;;;;;;;;;;;5075895;28;28332;-83
2022/04/30 16:01:15;;;;;;;;;;;;;;;;;;5075577;28;28427;-86
2022/04/30 16:03:40;;;;;;;;;;;;;;;;;;5075688;28;28635;-84
2022/04/30 16:06:06;;;;;;;;;;;;;;;;;;5075329;28;28363;-83
2022/04/30 16:08:32;;;;;;;;;;;;;;;;;;5075607;28;28480;-85
2022/04/30 16:10:57;;;;;;;;;;;;;;;;;;5076000;28;28249;-84
2022/04/30 16:13:22;;;;;;;;;;;;;;;;;;5075975;28;28424;-86
2022/04/30 16:15:47;;;;;;;;;;;;;;;;;;5076092;28;27746;-83
2022/04/30 16:18:12;;;;;;;;;;;;;;;;;;5076149;28;28449;-87
2022/04/30 16:20:39;;;;;;;;;;;;;;;;;;5076736;28;33749;-90
2022/04/30 16:23:04;;;;;;;;;;;;;;;;;;5075518;28;27815;-90
2022/04/30 16:25:29;;;;;;;;;;;;;;;;;;5076415;28;28371;-85
2022/04/30 16:27:55;;;;;;;;;;;;;;;;;;5078424;28;28398;-91
2022/04/30 16:30:20;;;;;;;;;;;;;;;;;;5077203;28;28349;-94
2022/04/30 16:32:45;;;;;;;;;;;;;;;;;;5078567;28;28462;-93
2022/04/30 16:35:12;;;;;;;;;;;;;;;;;;5083690;28;28460;-93
2022/04/30 16:37:38;;;;;;;;;;;;;;;;;;5084491;28;28420;-89
2022/04/30 16:40:03;;;;;;;;;;;;;;;;;;5075525;28;29190;-91
2022/04/30 16:42:28;;;;;;;;;;;;;;;;;;5074292;28;28493;-89
2022/04/30 16:44:54;;;;;;;;;;;;;;;;;;5082673;28;28882;-94
2022/04/30 16:47:19;;;;;;;;;;;;;;;;;;5067543;28;35750;-92
2022/04/30 16:49:44;;;;;;;;;;;;;;;;;;5055410;28;29421;-92
2022/04/30 16:52:24;;;;;;;;;;;;;;;;;;5055979;28;28505;-93
2022/04/30 16:57:33;;;;;;;;;;;;;;;;;;5075525;28;28363;-90
2022/04/30 17:00:10;;;;;;;;;;;;;;;;;;5076496;28;28419;-92
2022/04/30 17:02:35;;;;;;;;;;;;;;;;;;5074998;28;28526;-90
2022/04/30 17:05:01;;;;;;;;;;;;;;;;;;5075484;28;28312;-91
2022/04/30 17:07:27;;;;;;;;;;;;;;;;;;5075148;28;28420;-91
2022/04/30 17:09:53;;;;;;;;;;;;;;;;;;5074625;28;28672;-90
2022/04/30 17:12:18;;;;;;;;;;;;;;;;;;5075934;28;28315;-92
2022/04/30 17:14:43;;;;;;;;;;;;;;;;;;5075380;28;28287;-91
2022/04/30 17:17:08;;;;;;;;;;;;;;;;;;5076968;28;28445;-82
2022/04/30 17:19:34;;;;;;;;;;;;;;;;;;5074587;28;28462;-88
2022/04/30 17:21:59;;;;;;;;;;;;;;;;;;5074317;28;27826;-93
2022/04/30 17:24:24;;;;;;;;;;;;;;;;;;5073140;28;28389;-92
2022/04/30 17:26:50;;;;;;;;;;;;;;;;;;5073609;28;28556;-89